createdAt,value
2018-07-04T00:00:15.523Z,99.99
2018-07-04T00:01:15.518Z,99.99
2018-07-04T00:02:15.519Z,99.99
2018-07-04T00:03:15.524Z,99.99
2018-07-04T00:04:15.518Z,99.99
2018-07-04T00:05:15.514Z,99.99
2018-07-04T00:06:15.515Z,99.99
2018-07-04T00:07:15.519Z,99.99
2018-07-04T00:08:15.503Z,99.99
2018-07-04T00:09:15.513Z,99.99
2018-07-04T00:10:15.497Z,99.99
2018-07-04T00:11:15.496Z,99.99
2018-07-04T00:12:15.499Z,99.99
2018-07-04T00:13:15.492Z,99.99
2018-07-04T00:14:15.490Z,99.99
2018-07-04T00:15:15.541Z,99.99
2018-07-04T00:16:15.484Z,99.99
2018-07-04T00:17:15.487Z,99.99
2018-07-04T00:18:15.482Z,99.44
2018-07-04T00:19:15.478Z,99.44
2018-07-04T00:20:15.483Z,98.87
2018-07-04T00:21:15.474Z,98.96
2018-07-04T00:22:15.484Z,98.39
2018-07-04T00:23:15.470Z,98.49
2018-07-04T00:24:15.466Z,98.96
2018-07-04T00:25:15.506Z,99.06
2018-07-04T00:26:15.502Z,99.73
2018-07-04T00:27:15.459Z,99.73
2018-07-04T00:28:15.463Z,99.99
2018-07-04T00:29:15.457Z,99.93
2018-07-04T00:30:15.461Z,99.83
2018-07-04T00:31:15.463Z,99.99
2018-07-04T00:32:15.476Z,99.99
2018-07-04T00:33:15.443Z,99.99
2018-07-04T00:34:15.447Z,99.99
2018-07-04T00:35:15.476Z,99.99
2018-07-04T00:36:15.439Z,99.99
2018-07-04T00:37:15.436Z,99.99
2018-07-04T00:38:15.441Z,99.99
2018-07-04T00:39:15.440Z,99.99
2018-07-04T00:40:15.427Z,99.99
2018-07-04T00:41:15.424Z,99.99
2018-07-04T00:42:15.424Z,99.99
2018-07-04T00:43:15.428Z,99.99
2018-07-04T00:44:15.417Z,99.99
2018-07-04T00:45:15.416Z,99.99
2018-07-04T00:46:15.416Z,99.99
2018-07-04T00:47:15.422Z,99.99
2018-07-04T00:48:15.407Z,99.99
2018-07-04T00:49:15.405Z,99.99
2018-07-04T00:50:15.404Z,99.99
2018-07-04T00:51:15.409Z,99.99
2018-07-04T00:52:15.401Z,99.99
2018-07-04T00:53:15.394Z,99.99
2018-07-04T00:54:15.398Z,99.99
2018-07-04T00:55:15.398Z,99.99
2018-07-04T00:56:15.392Z,99.99
2018-07-04T00:57:15.388Z,99.99
2018-07-04T00:58:15.383Z,99.99
2018-07-04T00:59:15.380Z,99.99
2018-07-04T01:00:15.381Z,99.99
2018-07-04T01:01:15.374Z,99.99
2018-07-04T01:02:15.383Z,99.99
2018-07-04T01:03:15.368Z,99.99
2018-07-04T01:04:15.365Z,99.99
2018-07-04T01:05:15.373Z,99.99
2018-07-04T01:06:15.366Z,99.99
2018-07-04T01:07:15.374Z,99.99
2018-07-04T01:08:15.399Z,99.99
2018-07-04T01:09:15.361Z,99.99
2018-07-04T01:10:15.362Z,99.99
2018-07-04T01:11:15.354Z,99.99
2018-07-04T01:12:15.343Z,99.99
2018-07-04T01:13:15.347Z,99.99
2018-07-04T01:14:15.340Z,99.99
2018-07-04T01:15:15.368Z,99.99
2018-07-04T01:16:15.345Z,99.99
2018-07-04T01:17:15.331Z,99.99
2018-07-04T01:18:15.368Z,99.99
2018-07-04T01:19:15.324Z,99.99
2018-07-04T01:20:15.322Z,99.99
2018-07-04T01:21:15.322Z,99.99
2018-07-04T01:22:15.318Z,99.99
2018-07-04T01:23:15.318Z,99.99
2018-07-04T01:24:15.315Z,99.99
2018-07-04T01:25:15.309Z,99.99
2018-07-04T01:26:15.311Z,99.99
2018-07-04T01:27:15.306Z,99.99
2018-07-04T01:28:15.334Z,99.99
2018-07-04T01:29:15.294Z,99.99
2018-07-04T01:30:15.297Z,99.99
2018-07-04T01:31:15.291Z,99.99
2018-07-04T01:32:15.289Z,99.99
2018-07-04T01:33:15.284Z,99.99
2018-07-04T01:34:15.295Z,99.99
2018-07-04T01:35:15.288Z,99.99
2018-07-04T01:36:15.283Z,99.99
2018-07-04T01:37:15.275Z,99.99
2018-07-04T01:38:15.301Z,99.99
2018-07-04T01:39:15.270Z,99.99
2018-07-04T01:40:15.267Z,99.99
2018-07-04T01:41:15.265Z,99.99
2018-07-04T01:42:15.261Z,99.99
2018-07-04T01:43:15.265Z,99.99
2018-07-04T01:44:15.252Z,99.99
2018-07-04T01:45:15.260Z,99.99
2018-07-04T01:46:15.263Z,99.99
2018-07-04T01:47:15.248Z,99.99
2018-07-04T01:48:15.273Z,99.99
2018-07-04T01:49:15.249Z,99.99
2018-07-04T01:50:15.249Z,99.99
2018-07-04T01:51:15.235Z,99.99
2018-07-04T01:52:15.235Z,99.99
2018-07-04T01:53:15.231Z,99.99
2018-07-04T01:54:15.234Z,99.99
2018-07-04T01:55:15.224Z,99.99
2018-07-04T01:56:15.220Z,99.99
2018-07-04T01:57:15.219Z,99.99
2018-07-04T01:58:15.241Z,99.99
2018-07-04T01:59:15.214Z,99.99
2018-07-04T02:00:15.209Z,99.99
2018-07-04T02:01:15.208Z,99.99
2018-07-04T02:02:15.207Z,99.99
2018-07-04T02:03:15.201Z,99.99
2018-07-04T02:04:15.200Z,99.99
2018-07-04T02:05:15.203Z,99.99
2018-07-04T02:06:15.196Z,99.99
2018-07-04T02:07:15.190Z,99.99
2018-07-04T02:08:15.207Z,99.99
2018-07-04T02:09:15.184Z,99.99
2018-07-04T02:10:15.190Z,99.99
2018-07-04T02:11:15.179Z,99.99
2018-07-04T02:12:15.177Z,99.99
2018-07-04T02:13:15.181Z,99.99
2018-07-04T02:14:15.178Z,99.99
2018-07-04T02:15:15.169Z,99.99
2018-07-04T02:16:15.164Z,99.99
2018-07-04T02:17:15.162Z,99.99
2018-07-04T02:18:15.164Z,99.99
2018-07-04T02:19:15.163Z,99.99
2018-07-04T02:20:15.153Z,99.99
2018-07-04T02:21:15.160Z,99.99
2018-07-04T02:22:15.147Z,99.99
2018-07-04T02:23:15.145Z,99.99
2018-07-04T02:24:15.145Z,99.99
2018-07-04T02:25:15.143Z,99.99
2018-07-04T02:26:15.149Z,99.99
2018-07-04T02:27:15.135Z,99.99
2018-07-04T02:28:15.143Z,99.99
2018-07-04T02:29:15.136Z,99.99
2018-07-04T02:30:15.128Z,99.99
2018-07-04T02:31:15.124Z,99.99
2018-07-04T02:32:15.118Z,99.99
2018-07-04T02:33:15.123Z,99.99
2018-07-04T02:34:15.112Z,99.99
2018-07-04T02:35:15.113Z,99.99
2018-07-04T02:36:15.108Z,99.99
2018-07-04T02:37:15.118Z,99.99
2018-07-04T02:38:15.121Z,99.99
2018-07-04T02:39:15.110Z,99.99
2018-07-04T02:40:15.094Z,99.99
2018-07-04T02:41:15.092Z,99.99
2018-07-04T02:42:15.091Z,99.99
2018-07-04T02:43:15.085Z,99.99
2018-07-04T02:44:15.082Z,99.99
2018-07-04T02:45:15.084Z,99.99
2018-07-04T02:46:15.081Z,99.99
2018-07-04T02:47:15.073Z,99.99
2018-07-04T02:48:15.071Z,99.99
2018-07-04T02:49:15.070Z,99.99
2018-07-04T02:50:15.073Z,99.99
2018-07-04T02:51:15.062Z,99.99
2018-07-04T02:52:15.069Z,99.99
2018-07-04T02:53:15.060Z,99.99
2018-07-04T02:54:15.055Z,99.99
2018-07-04T02:55:15.051Z,99.99
2018-07-04T02:56:15.048Z,99.99
2018-07-04T02:57:15.047Z,99.99
2018-07-04T02:58:15.054Z,99.99
2018-07-04T02:59:15.049Z,99.99
2018-07-04T03:00:15.035Z,99.99
2018-07-04T03:01:15.033Z,99.99
2018-07-04T03:02:15.033Z,99.99
2018-07-04T03:03:15.037Z,99.99
2018-07-04T03:04:15.027Z,99.99
2018-07-04T03:05:15.022Z,99.99
2018-07-04T03:06:15.034Z,99.99
2018-07-04T03:07:15.025Z,99.99
2018-07-04T03:08:15.025Z,99.99
2018-07-04T03:09:15.015Z,99.99
2018-07-04T03:10:15.027Z,99.99
2018-07-04T03:11:15.010Z,99.99
2018-07-04T03:12:15.010Z,99.99
2018-07-04T03:13:15.002Z,99.99
2018-07-04T03:14:14.996Z,99.99
2018-07-04T03:15:14.992Z,99.99
2018-07-04T03:16:14.995Z,99.99
2018-07-04T03:17:14.996Z,99.99
2018-07-04T03:18:14.983Z,99.99
2018-07-04T03:19:14.980Z,99.99
2018-07-04T03:20:14.980Z,99.99
2018-07-04T03:21:14.975Z,99.99
2018-07-04T03:22:14.980Z,99.99
2018-07-04T03:23:14.970Z,99.99
2018-07-04T03:24:14.969Z,99.99
2018-07-04T03:25:14.961Z,99.99
2018-07-04T03:26:14.964Z,99.99
2018-07-04T03:27:14.966Z,99.99
2018-07-04T03:28:14.958Z,99.99
2018-07-04T03:29:14.958Z,99.99
2018-07-04T03:30:14.948Z,99.99
2018-07-04T03:31:14.968Z,99.99
2018-07-04T03:32:14.952Z,99.99
2018-07-04T03:33:14.937Z,99.99
2018-07-04T03:34:14.944Z,99.99
2018-07-04T03:35:14.937Z,99.99
2018-07-04T03:36:14.940Z,99.99
2018-07-04T03:37:14.927Z,99.99
2018-07-04T03:38:14.938Z,99.99
2018-07-04T03:39:14.923Z,99.99
2018-07-04T03:40:14.928Z,99.99
2018-07-04T03:41:14.937Z,99.99
2018-07-04T03:42:14.915Z,99.99
2018-07-04T03:43:14.913Z,99.99
2018-07-04T03:44:14.908Z,99.99
2018-07-04T03:45:14.910Z,99.99
2018-07-04T03:46:14.909Z,99.99
2018-07-04T03:47:14.898Z,99.99
2018-07-04T03:48:14.903Z,99.99
2018-07-04T03:49:14.892Z,99.99
2018-07-04T03:50:14.895Z,99.99
2018-07-04T03:51:14.904Z,99.99
2018-07-04T03:52:14.887Z,99.99
2018-07-04T03:53:14.878Z,99.99
2018-07-04T03:54:14.873Z,99.99
2018-07-04T03:55:14.881Z,99.99
2018-07-04T03:56:14.870Z,99.99
2018-07-04T03:57:14.879Z,99.99
2018-07-04T03:58:14.866Z,99.99
2018-07-04T03:59:14.867Z,99.99
2018-07-04T04:00:14.859Z,99.99
2018-07-04T04:01:14.856Z,99.99
2018-07-04T04:02:14.853Z,99.99
2018-07-04T04:03:14.856Z,99.99
2018-07-04T04:04:14.846Z,99.99
2018-07-04T04:05:14.851Z,99.99
2018-07-04T04:06:14.837Z,99.99
2018-07-04T04:07:14.870Z,99.99
2018-07-04T04:08:14.833Z,99.99
2018-07-04T04:09:14.833Z,99.99
2018-07-04T04:10:14.831Z,99.99
2018-07-04T04:11:14.841Z,99.99
2018-07-04T04:12:14.836Z,99.99
2018-07-04T04:13:14.832Z,99.99
2018-07-04T04:14:14.815Z,99.99
2018-07-04T04:15:14.812Z,99.99
2018-07-04T04:16:14.809Z,99.99
2018-07-04T04:17:14.810Z,99.99
2018-07-04T04:18:14.802Z,99.99
2018-07-04T04:19:14.808Z,99.99
2018-07-04T04:20:14.797Z,99.99
2018-07-04T04:21:14.799Z,99.99
2018-07-04T04:22:14.802Z,99.99
2018-07-04T04:23:14.787Z,99.99
2018-07-04T04:24:14.782Z,99.99
2018-07-04T04:25:14.797Z,99.99
2018-07-04T04:26:14.779Z,99.99
2018-07-04T04:27:14.780Z,99.99
2018-07-04T04:28:14.773Z,99.99
2018-07-04T04:29:14.775Z,99.99
2018-07-04T04:30:14.778Z,99.99
2018-07-04T04:31:14.777Z,99.40
2018-07-04T04:32:14.761Z,96.56
2018-07-04T04:33:14.760Z,94.29
2018-07-04T04:34:14.761Z,93.13
2018-07-04T04:35:14.768Z,92.75
2018-07-04T04:36:14.804Z,93.04
2018-07-04T04:37:14.753Z,93.48
2018-07-04T04:38:14.751Z,94.06
2018-07-04T04:39:14.753Z,95.64
2018-07-04T04:40:14.750Z,96.03
2018-07-04T04:41:14.746Z,96.42
2018-07-04T04:42:14.746Z,96.22
2018-07-04T04:43:14.749Z,95.74
2018-07-04T04:44:14.744Z,96.03
2018-07-04T04:45:14.742Z,96.42
2018-07-04T04:46:14.741Z,96.12
2018-07-04T04:47:14.747Z,96.42
2018-07-04T04:48:14.742Z,95.84
2018-07-04T04:49:14.737Z,95.26
2018-07-04T04:50:14.735Z,94.34
2018-07-04T04:51:14.734Z,94.06
2018-07-04T04:52:14.734Z,94.54
2018-07-04T04:53:14.731Z,95.11
2018-07-04T04:54:14.731Z,95.11
2018-07-04T04:55:14.744Z,94.39
2018-07-04T04:56:14.743Z,94.49
2018-07-04T04:57:14.742Z,94.87
2018-07-04T04:58:14.735Z,94.87
2018-07-04T04:59:14.739Z,95.50
2018-07-04T05:00:14.728Z,95.26
2018-07-04T05:01:14.727Z,95.74
2018-07-04T05:02:14.726Z,95.84
2018-07-04T05:03:14.724Z,96.03
2018-07-04T05:04:14.722Z,95.26
2018-07-04T05:05:14.732Z,94.44
2018-07-04T05:06:14.720Z,93.76
2018-07-04T05:07:14.725Z,92.17
2018-07-04T05:08:14.723Z,90.19
2018-07-04T05:09:14.718Z,87.24
2018-07-04T05:10:14.719Z,85.26
2018-07-04T05:11:14.715Z,84.14
2018-07-04T05:12:14.722Z,82.60
2018-07-04T05:13:14.713Z,82.11
2018-07-04T05:14:14.726Z,82.50
2018-07-04T05:15:14.723Z,82.60
2018-07-04T05:16:14.721Z,82.89
2018-07-04T05:17:14.714Z,83.18
2018-07-04T05:18:14.716Z,84.20
2018-07-04T05:19:14.716Z,85.26
2018-07-04T05:20:14.719Z,84.97
2018-07-04T05:21:14.714Z,85.16
2018-07-04T05:22:14.718Z,85.26
2018-07-04T05:23:14.726Z,84.97
2018-07-04T05:24:14.722Z,85.26
2018-07-04T05:25:14.713Z,84.97
2018-07-04T05:26:14.714Z,85.26
2018-07-04T05:27:14.714Z,85.22
2018-07-04T05:28:14.723Z,85.50
2018-07-04T05:29:14.714Z,85.26
2018-07-04T05:30:14.718Z,84.48
2018-07-04T05:31:14.712Z,85.16
2018-07-04T05:32:14.716Z,85.06
2018-07-04T05:33:14.715Z,83.52
2018-07-04T05:34:14.711Z,82.60
2018-07-04T05:35:14.851Z,81.82
2018-07-04T05:36:14.725Z,81.44
2018-07-04T05:37:14.714Z,81.15
2018-07-04T05:38:14.710Z,80.71
2018-07-04T05:39:14.764Z,80.90
2018-07-04T05:40:14.718Z,80.71
2018-07-04T05:41:14.708Z,79.64
2018-07-04T05:42:14.718Z,79.68
2018-07-04T05:43:14.713Z,78.71
2018-07-04T05:44:14.709Z,79.45
2018-07-04T05:45:14.710Z,78.58
2018-07-04T05:46:14.816Z,79.35
2018-07-04T05:47:14.716Z,79.35
2018-07-04T05:48:14.712Z,79.93
2018-07-04T05:49:14.708Z,80.51
2018-07-04T05:50:14.708Z,80.80
2018-07-04T05:51:14.708Z,80.47
2018-07-04T05:52:14.707Z,80.76
2018-07-04T05:53:14.713Z,79.74
2018-07-04T05:54:14.712Z,79.83
2018-07-04T05:55:14.709Z,80.66
2018-07-04T05:56:14.765Z,80.99
2018-07-04T05:57:14.708Z,81.34
2018-07-04T05:58:14.710Z,80.57
2018-07-04T05:59:14.710Z,80.47
2018-07-04T06:00:14.708Z,80.38
2018-07-04T06:01:14.710Z,81.44
2018-07-04T06:02:14.720Z,81.44
2018-07-04T06:03:14.709Z,81.53
2018-07-04T06:04:14.707Z,81.92
2018-07-04T06:05:14.718Z,80.86
2018-07-04T06:06:14.720Z,81.44
2018-07-04T06:07:14.709Z,80.76
2018-07-04T06:08:14.706Z,79.74
2018-07-04T06:09:14.777Z,79.64
2018-07-04T06:10:14.708Z,80.12
2018-07-04T06:11:14.717Z,79.68
2018-07-04T06:12:14.708Z,79.29
2018-07-04T06:13:14.719Z,78.91
2018-07-04T06:14:14.709Z,78.23
2018-07-04T06:15:14.710Z,78.42
2018-07-04T06:16:14.714Z,78.27
2018-07-04T06:17:14.711Z,78.17
2018-07-04T06:18:14.713Z,77.69
2018-07-04T06:19:14.719Z,77.59
2018-07-04T06:20:14.725Z,77.78
2018-07-04T06:21:14.710Z,77.30
2018-07-04T06:22:14.717Z,76.76
2018-07-04T06:23:14.713Z,76.86
2018-07-04T06:24:14.712Z,76.66
2018-07-04T06:25:14.715Z,76.86
2018-07-04T06:26:14.724Z,76.86
2018-07-04T06:27:14.719Z,76.46
2018-07-04T06:28:14.717Z,76.18
2018-07-04T06:29:14.731Z,75.98
2018-07-04T06:30:14.724Z,76.37
2018-07-04T06:31:14.721Z,76.18
2018-07-04T06:32:14.723Z,75.34
2018-07-04T06:33:14.725Z,74.86
2018-07-04T06:34:14.730Z,75.05
2018-07-04T06:35:14.722Z,74.38
2018-07-04T06:36:14.729Z,74.18
2018-07-04T06:37:14.737Z,74.47
2018-07-04T06:38:14.726Z,73.79
2018-07-04T06:39:14.780Z,74.22
2018-07-04T06:40:14.729Z,72.83
2018-07-04T06:41:14.729Z,73.93
2018-07-04T06:42:14.730Z,73.15
2018-07-04T06:43:14.731Z,72.67
2018-07-04T06:44:14.747Z,73.25
2018-07-04T06:45:14.739Z,71.89
2018-07-04T06:46:14.740Z,70.18
2018-07-04T06:47:14.752Z,70.18
2018-07-04T06:48:14.746Z,69.79
2018-07-04T06:49:14.764Z,69.79
2018-07-04T06:50:14.745Z,69.12
2018-07-04T06:51:14.755Z,69.06
2018-07-04T06:52:14.744Z,69.21
2018-07-04T06:53:14.753Z,69.06
2018-07-04T06:54:14.816Z,69.06
2018-07-04T06:55:14.749Z,68.28
2018-07-04T06:56:14.755Z,68.08
2018-07-04T06:57:14.752Z,68.28
2018-07-04T06:58:14.754Z,68.28
2018-07-04T06:59:14.770Z,68.08
2018-07-04T07:00:14.759Z,68.08
2018-07-04T07:01:14.759Z,68.66
2018-07-04T07:02:14.761Z,68.47
2018-07-04T07:03:14.763Z,69.15
2018-07-04T07:04:14.771Z,69.24
2018-07-04T07:05:14.765Z,69.79
2018-07-04T07:06:14.767Z,69.12
2018-07-04T07:07:14.771Z,68.54
2018-07-04T07:08:14.795Z,69.02
2018-07-04T07:09:14.773Z,70.09
2018-07-04T07:10:14.778Z,69.06
2018-07-04T07:11:14.792Z,69.73
2018-07-04T07:12:14.783Z,69.79
2018-07-04T07:13:14.792Z,69.02
2018-07-04T07:14:14.783Z,68.92
2018-07-04T07:15:14.786Z,69.54
2018-07-04T07:16:14.794Z,69.54
2018-07-04T07:17:14.792Z,69.93
2018-07-04T07:18:14.798Z,69.83
2018-07-04T07:19:14.795Z,69.15
2018-07-04T07:20:14.796Z,69.06
2018-07-04T07:21:14.875Z,68.76
2018-07-04T07:22:14.797Z,68.99
2018-07-04T07:23:14.808Z,68.31
2018-07-04T07:24:14.803Z,68.51
2018-07-04T07:25:14.813Z,68.02
2018-07-04T07:26:14.820Z,68.02
2018-07-04T07:27:14.811Z,66.76
2018-07-04T07:28:14.811Z,67.05
2018-07-04T07:29:14.813Z,66.86
2018-07-04T07:30:14.824Z,67.83
2018-07-04T07:31:14.817Z,67.73
2018-07-04T07:32:14.825Z,67.24
2018-07-04T07:33:14.820Z,66.17
2018-07-04T07:34:14.924Z,67.24
2018-07-04T07:35:14.833Z,66.95
2018-07-04T07:36:14.835Z,66.69
2018-07-04T07:37:14.829Z,67.28
2018-07-04T07:38:14.841Z,66.50
2018-07-04T07:39:14.843Z,65.33
2018-07-04T07:40:14.851Z,65.33
2018-07-04T07:41:14.839Z,65.37
2018-07-04T07:42:14.841Z,64.69
2018-07-04T07:43:14.847Z,65.08
2018-07-04T07:44:14.851Z,64.40
2018-07-04T07:45:14.848Z,64.01
2018-07-04T07:46:14.853Z,64.59
2018-07-04T07:47:14.859Z,64.53
2018-07-04T07:48:14.856Z,63.84
2018-07-04T07:49:14.859Z,63.55
2018-07-04T07:50:14.863Z,63.65
2018-07-04T07:51:14.878Z,64.11
2018-07-04T07:52:14.875Z,64.43
2018-07-04T07:53:14.872Z,63.94
2018-07-04T07:54:15.099Z,63.36
2018-07-04T07:55:14.876Z,62.19
2018-07-04T07:56:14.891Z,62.77
2018-07-04T07:57:14.885Z,63.26
2018-07-04T07:58:14.892Z,63.00
2018-07-04T07:59:14.901Z,62.23
2018-07-04T08:00:14.890Z,61.83
2018-07-04T08:01:14.904Z,62.68
2018-07-04T08:02:14.899Z,60.74
2018-07-04T08:03:14.906Z,62.87
2018-07-04T08:04:14.914Z,61.71
2018-07-04T08:05:14.906Z,62.23
2018-07-04T08:06:14.908Z,61.74
2018-07-04T08:07:14.911Z,61.35
2018-07-04T08:08:14.915Z,61.15
2018-07-04T08:09:14.918Z,60.77
2018-07-04T08:10:14.924Z,60.67
2018-07-04T08:11:14.931Z,60.70
2018-07-04T08:12:14.928Z,60.99
2018-07-04T08:13:14.931Z,60.21
2018-07-04T08:14:14.939Z,59.72
2018-07-04T08:15:14.941Z,59.23
2018-07-04T08:16:14.948Z,59.85
2018-07-04T08:17:14.948Z,60.11
2018-07-04T08:18:14.948Z,59.23
2018-07-04T08:19:14.950Z,59.85
2018-07-04T08:20:14.962Z,59.95
2018-07-04T08:21:14.962Z,59.75
2018-07-04T08:22:14.960Z,58.69
2018-07-04T08:23:14.964Z,58.42
2018-07-04T08:24:14.975Z,57.64
2018-07-04T08:25:14.978Z,57.25
2018-07-04T08:26:15.005Z,57.35
2018-07-04T08:27:14.981Z,57.35
2018-07-04T08:28:14.983Z,57.09
2018-07-04T08:29:14.989Z,56.40
2018-07-04T08:30:15.006Z,56.89
2018-07-04T08:31:14.996Z,56.60
2018-07-04T08:32:15.007Z,56.70
2018-07-04T08:33:15.011Z,56.76
2018-07-04T08:34:15.012Z,56.47
2018-07-04T08:35:15.011Z,57.06
2018-07-04T08:36:15.028Z,57.22
2018-07-04T08:37:15.023Z,57.03
2018-07-04T08:38:15.026Z,58.29
2018-07-04T08:39:15.062Z,58.29
2018-07-04T08:40:15.030Z,58.10
2018-07-04T08:41:15.034Z,58.49
2018-07-04T08:42:15.040Z,58.10
2018-07-04T08:43:15.048Z,58.10
2018-07-04T08:44:15.047Z,57.90
2018-07-04T08:45:15.052Z,58.59
2018-07-04T08:46:15.063Z,58.59
2018-07-04T08:47:15.060Z,58.00
2018-07-04T08:48:15.063Z,57.32
2018-07-04T08:49:15.067Z,58.10
2018-07-04T08:50:15.071Z,58.20
2018-07-04T08:51:15.077Z,57.81
2018-07-04T08:52:15.078Z,57.71
2018-07-04T08:53:15.084Z,58.10
2018-07-04T08:54:15.093Z,58.00
2018-07-04T08:55:15.104Z,57.90
2018-07-04T08:56:15.094Z,58.10
2018-07-04T08:57:15.099Z,58.10
2018-07-04T08:58:15.114Z,58.10
2018-07-04T08:59:15.110Z,58.00
2018-07-04T09:00:15.116Z,57.61
2018-07-04T09:01:15.117Z,57.71
2018-07-04T09:02:15.123Z,58.49
2018-07-04T09:03:15.127Z,58.07
2018-07-04T09:04:15.126Z,59.14
2018-07-04T09:05:15.138Z,60.08
2018-07-04T09:06:15.134Z,59.95
2018-07-04T09:07:15.146Z,60.15
2018-07-04T09:08:15.142Z,60.05
2018-07-04T09:09:15.148Z,59.99
2018-07-04T09:10:15.148Z,60.77
2018-07-04T09:11:15.152Z,60.57
2018-07-04T09:12:15.164Z,59.92
2018-07-04T09:13:15.162Z,59.33
2018-07-04T09:14:15.169Z,58.29
2018-07-04T09:15:15.175Z,58.10
2018-07-04T09:16:15.174Z,58.29
2018-07-04T09:17:15.182Z,58.00
2018-07-04T09:18:15.188Z,57.42
2018-07-04T09:19:15.192Z,57.42
2018-07-04T09:20:15.185Z,57.15
2018-07-04T09:21:15.191Z,56.27
2018-07-04T09:22:15.198Z,56.60
2018-07-04T09:23:15.200Z,55.46
2018-07-04T09:24:15.203Z,54.77
2018-07-04T09:25:15.218Z,55.16
2018-07-04T09:26:15.215Z,54.99
2018-07-04T09:27:15.213Z,54.41
2018-07-04T09:28:15.222Z,53.73
2018-07-04T09:29:15.221Z,53.44
2018-07-04T09:30:15.227Z,53.36
2018-07-04T09:31:15.242Z,53.17
2018-07-04T09:32:15.234Z,52.68
2018-07-04T09:33:15.244Z,53.17
2018-07-04T09:34:15.253Z,52.61
2018-07-04T09:35:15.248Z,52.41
2018-07-04T09:36:15.261Z,52.41
2018-07-04T09:37:15.267Z,51.76
2018-07-04T09:38:15.262Z,51.46
2018-07-04T09:39:15.277Z,51.46
2018-07-04T09:40:15.274Z,51.14
2018-07-04T09:41:15.278Z,51.43
2018-07-04T09:42:15.288Z,51.90
2018-07-04T09:43:15.294Z,52.09
2018-07-04T09:44:15.293Z,51.61
2018-07-04T09:45:15.301Z,52.17
2018-07-04T09:46:15.306Z,52.95
2018-07-04T09:47:15.311Z,52.66
2018-07-04T09:48:15.315Z,53.34
2018-07-04T09:49:15.326Z,52.85
2018-07-04T09:50:15.322Z,53.70
2018-07-04T09:51:15.329Z,53.70
2018-07-04T09:52:15.359Z,54.48
2018-07-04T09:53:15.342Z,53.21
2018-07-04T09:54:15.341Z,53.53
2018-07-04T09:55:15.355Z,53.83
2018-07-04T09:56:15.353Z,52.95
2018-07-04T09:57:15.358Z,52.78
2018-07-04T09:58:15.364Z,52.22
2018-07-04T09:59:15.375Z,52.31
2018-07-04T10:00:15.382Z,51.43
2018-07-04T10:01:15.379Z,51.66
2018-07-04T10:02:15.384Z,50.98
2018-07-04T10:03:15.385Z,49.90
2018-07-04T10:04:15.394Z,50.32
2018-07-04T10:05:15.394Z,49.36
2018-07-04T10:06:15.405Z,48.68
2018-07-04T10:07:15.414Z,48.02
2018-07-04T10:08:15.409Z,47.82
2018-07-04T10:09:15.419Z,48.99
2018-07-04T10:10:15.426Z,48.70
2018-07-04T10:11:15.426Z,48.70
2018-07-04T10:12:15.432Z,48.80
2018-07-04T10:13:15.442Z,48.70
2018-07-04T10:14:15.444Z,48.80
2018-07-04T10:15:15.450Z,49.16
2018-07-04T10:16:15.469Z,49.16
2018-07-04T10:17:15.462Z,50.44
2018-07-04T10:18:15.531Z,50.49
2018-07-04T10:19:15.473Z,51.24
2018-07-04T10:20:15.480Z,51.97
2018-07-04T10:21:15.488Z,52.66
2018-07-04T10:22:15.488Z,53.44
2018-07-04T10:23:15.504Z,53.70
2018-07-04T10:24:15.511Z,54.87
2018-07-04T10:25:15.512Z,55.85
2018-07-04T10:26:15.518Z,56.01
2018-07-04T10:27:15.530Z,57.57
2018-07-04T10:28:15.535Z,56.96
2018-07-04T10:29:15.527Z,57.90
2018-07-04T10:30:15.534Z,58.20
2018-07-04T10:31:15.540Z,58.17
2018-07-04T10:32:15.545Z,58.53
2018-07-04T10:33:15.557Z,60.05
2018-07-04T10:34:15.581Z,60.35
2018-07-04T10:35:15.566Z,61.09
2018-07-04T10:36:15.559Z,61.68
2018-07-04T10:37:15.570Z,62.71
2018-07-04T10:38:15.571Z,63.20
2018-07-04T10:39:15.570Z,64.07
2018-07-04T10:40:15.584Z,64.04
2018-07-04T10:41:15.584Z,64.33
2018-07-04T10:42:15.591Z,64.14
2018-07-04T10:43:15.603Z,65.20
2018-07-04T10:44:15.591Z,65.79
2018-07-04T10:45:15.601Z,65.40
2018-07-04T10:46:15.596Z,64.95
2018-07-04T10:47:15.604Z,64.14
2018-07-04T10:48:15.604Z,64.46
2018-07-04T10:49:15.604Z,63.49
2018-07-04T10:50:15.608Z,63.59
2018-07-04T10:51:15.616Z,64.07
2018-07-04T10:52:15.620Z,63.59
2018-07-04T10:53:15.618Z,64.26
2018-07-04T10:54:15.643Z,63.98
2018-07-04T10:55:15.627Z,64.56
2018-07-04T10:56:15.648Z,64.14
2018-07-04T10:57:15.636Z,64.43
2018-07-04T10:58:15.635Z,64.43
2018-07-04T10:59:15.644Z,64.92
2018-07-04T11:00:15.644Z,65.30
2018-07-04T11:01:15.648Z,65.27
2018-07-04T11:02:15.643Z,65.37
2018-07-04T11:03:15.644Z,65.66
2018-07-04T11:04:15.662Z,65.66
2018-07-04T11:05:15.654Z,65.66
2018-07-04T11:06:15.651Z,66.05
2018-07-04T11:07:15.654Z,65.75
2018-07-04T11:08:15.661Z,66.05
2018-07-04T11:09:15.666Z,65.30
2018-07-04T11:10:15.673Z,64.56
2018-07-04T11:11:15.671Z,64.26
2018-07-04T11:12:15.667Z,64.46
2018-07-04T11:13:15.679Z,63.81
2018-07-04T11:14:15.676Z,62.35
2018-07-04T11:15:15.671Z,62.77
2018-07-04T11:16:15.673Z,61.41
2018-07-04T11:17:15.677Z,61.44
2018-07-04T11:18:15.680Z,61.05
2018-07-04T11:19:15.688Z,61.05
2018-07-04T11:20:15.684Z,60.99
2018-07-04T11:21:15.688Z,60.86
2018-07-04T11:22:15.701Z,61.28
2018-07-04T11:23:15.697Z,61.28
2018-07-04T11:24:15.702Z,61.08
2018-07-04T11:25:15.697Z,61.18
2018-07-04T11:26:15.699Z,61.47
2018-07-04T11:27:15.711Z,59.92
2018-07-04T11:28:15.708Z,59.92
2018-07-04T11:29:15.716Z,60.41
2018-07-04T11:30:15.715Z,60.11
2018-07-04T11:31:15.717Z,60.14
2018-07-04T11:32:15.718Z,59.92
2018-07-04T11:33:15.720Z,60.72
2018-07-04T11:34:15.724Z,60.24
2018-07-04T11:35:15.727Z,59.59
2018-07-04T11:36:15.742Z,59.36
2018-07-04T11:37:15.745Z,59.30
2018-07-04T11:38:15.740Z,59.00
2018-07-04T11:39:15.749Z,58.42
2018-07-04T11:40:15.742Z,58.22
2018-07-04T11:41:15.759Z,58.03
2018-07-04T11:42:15.754Z,57.64
2018-07-04T11:43:15.762Z,56.50
2018-07-04T11:44:15.769Z,56.40
2018-07-04T11:45:15.760Z,55.91
2018-07-04T11:46:15.764Z,55.46
2018-07-04T11:47:15.776Z,56.14
2018-07-04T11:48:15.772Z,55.07
2018-07-04T11:49:15.779Z,55.26
2018-07-04T11:50:15.787Z,55.48
2018-07-04T11:51:15.791Z,55.68
2018-07-04T11:52:15.788Z,54.53
2018-07-04T11:53:15.799Z,52.00
2018-07-04T11:54:15.794Z,51.21
2018-07-04T11:55:15.800Z,50.73
2018-07-04T11:56:15.802Z,51.09
2018-07-04T11:57:15.809Z,51.58
2018-07-04T11:58:15.809Z,51.48
2018-07-04T11:59:15.814Z,52.29
2018-07-04T12:00:15.821Z,51.31
2018-07-04T12:01:15.832Z,51.97
2018-07-04T12:02:15.833Z,52.44
2018-07-04T12:03:15.839Z,52.17
2018-07-04T12:04:15.832Z,50.60
2018-07-04T12:05:15.846Z,50.31
2018-07-04T12:06:15.844Z,50.31
2018-07-04T12:07:15.852Z,49.85
2018-07-04T12:08:15.853Z,49.95
2018-07-04T12:09:15.868Z,49.56
2018-07-04T12:10:15.865Z,49.37
2018-07-04T12:11:15.875Z,48.97
2018-07-04T12:12:15.876Z,48.12
2018-07-04T12:13:15.874Z,47.36
2018-07-04T12:14:15.884Z,47.27
2018-07-04T12:15:15.889Z,48.93
2018-07-04T12:16:15.886Z,47.66
2018-07-04T12:17:15.892Z,47.85
2018-07-04T12:18:15.897Z,47.28
2018-07-04T12:19:15.911Z,47.36
2018-07-04T12:20:15.905Z,47.07
2018-07-04T12:21:15.912Z,47.07
2018-07-04T12:22:15.916Z,47.36
2018-07-04T12:23:15.922Z,47.44
2018-07-04T12:24:15.933Z,47.83
2018-07-04T12:25:15.933Z,48.68
2018-07-04T12:26:15.936Z,48.58
2018-07-04T12:27:15.946Z,49.46
2018-07-04T12:28:15.949Z,49.54
2018-07-04T12:29:15.951Z,50.41
2018-07-04T12:30:15.960Z,50.09
2018-07-04T12:31:15.962Z,50.58
2018-07-04T12:32:15.965Z,50.87
2018-07-04T12:33:15.971Z,50.38
2018-07-04T12:34:15.974Z,50.48
2018-07-04T12:35:15.986Z,51.29
2018-07-04T12:36:15.983Z,51.87
2018-07-04T12:37:15.989Z,51.19
2018-07-04T12:38:15.992Z,51.29
2018-07-04T12:39:16.005Z,50.48
2018-07-04T12:40:16.011Z,51.29
2018-07-04T12:41:16.007Z,51.58
2018-07-04T12:42:16.020Z,51.26
2018-07-04T12:43:16.025Z,50.68
2018-07-04T12:44:16.025Z,50.68
2018-07-04T12:45:16.024Z,49.80
2018-07-04T12:46:16.043Z,49.41
2018-07-04T12:47:16.066Z,49.83
2018-07-04T12:48:16.037Z,50.21
2018-07-04T12:49:16.042Z,50.21
2018-07-04T12:50:16.048Z,49.83
2018-07-04T12:51:16.055Z,49.27
2018-07-04T12:52:16.059Z,48.88